ETHF

Fritzlar Airport

Fritzlar, Germany
METAR ETHF 231520Z 07011KT 9999 FEW220 01/M16 Q1021 BLU+
Observed Flight Rules
Feb-23 @ 15:20 UTC (an hour ago) Visual Flight Rules
Wind Visibility Clouds
70° at 11 knots 10,000+ meters
  • Few at 22,000' AGL
Temperatures Readings
Current 1°C / 34°F
Dewpoint -16°C / 3°F
Humidity 27%
Altimeter 30.15" Hg
Pressure 1021 hPa
Elevation 181
METAR ETHF 231520Z 07011KT 9999 FEW220 01/M16 Q1021 BLU+
Observed Flight Rules
Feb-23 @ 15:20 UTC
(an hour ago)
VFR
Wind Visibility
70° at 11 knots 10,000+ meters
Clouds
  • Few at 22,000' AGL
Temperature Dewpoint
1°C / 34°F -16°C / 3°F
Humidity Altimeter Pressure
27% 30.15" Hg 1021 hPa